createdAt,value
2022-09-12T00:01:14.386Z,6.63
2022-09-12T00:03:42.594Z,6.68
2022-09-12T00:06:13.469Z,5.38
2022-09-12T00:08:42.658Z,6.63
2022-09-12T00:11:12.370Z,7.65
2022-09-12T00:13:42.122Z,9.52
2022-09-12T00:16:16.691Z,8.43
2022-09-12T00:18:46.817Z,5.30
2022-09-12T00:21:15.376Z,6.20
2022-09-12T00:23:44.622Z,7.05
2022-09-12T00:26:15.273Z,8.32
2022-09-12T00:28:46.068Z,8.90
2022-09-12T00:31:16.763Z,8.57
2022-09-12T00:33:45.015Z,6.45
2022-09-12T00:36:15.762Z,7.40
2022-09-12T00:38:46.487Z,7.80
2022-09-12T00:41:18.872Z,7.65
2022-09-12T00:43:48.452Z,9.95
2022-09-12T00:46:27.269Z,9.90
2022-09-12T00:49:00.156Z,8.02
2022-09-12T00:51:30.484Z,8.45
2022-09-12T00:54:02.472Z,10.45
2022-09-12T00:56:30.584Z,11.05
2022-09-12T00:59:03.138Z,10.50
2022-09-12T01:01:32.770Z,8.77
2022-09-12T01:04:03.593Z,6.17
2022-09-12T01:06:36.512Z,5.78
2022-09-12T01:09:06.214Z,5.78
2022-09-12T01:11:38.111Z,8.90
2022-09-12T01:14:07.448Z,5.22
2022-09-12T01:16:36.689Z,8.97
2022-09-12T01:19:26.148Z,9.68
2022-09-12T01:22:12.424Z,9.98
2022-09-12T01:25:09.442Z,9.95
2022-09-12T01:27:59.444Z,6.85
2022-09-12T01:30:45.528Z,7.47
2022-09-12T01:33:27.101Z,8.13
2022-09-12T01:36:17.093Z,9.60
2022-09-12T01:38:50.221Z,8.33
2022-09-12T01:41:27.769Z,8.80
2022-09-12T01:44:06.418Z,9.07
2022-09-12T01:46:44.005Z,9.13
2022-09-12T01:49:18.714Z,6.65
2022-09-12T01:51:54.383Z,6.00
2022-09-12T01:54:28.708Z,6.13
2022-09-12T01:57:01.434Z,8.63
2022-09-12T01:59:34.293Z,7.22
2022-09-12T02:02:08.415Z,6.60
2022-09-12T02:04:40.624Z,6.05
2022-09-12T02:07:15.344Z,10.02
2022-09-12T02:09:48.463Z,8.50
2022-09-12T02:12:20.248Z,9.57
2022-09-12T02:14:52.624Z,7.72
2022-09-12T02:17:24.398Z,9.23
2022-09-12T02:19:56.734Z,8.50
2022-09-12T02:22:28.088Z,7.97
2022-09-12T02:25:00.142Z,7.15
2022-09-12T02:27:34.340Z,9.68
2022-09-12T02:30:02.237Z,7.57
2022-09-12T02:32:38.064Z,8.05
2022-09-12T02:35:10.596Z,7.23
2022-09-12T02:37:56.071Z,6.23
2022-09-12T02:40:24.357Z,6.97
2022-09-12T02:42:52.784Z,7.43
2022-09-12T02:45:20.802Z,9.52
2022-09-12T02:47:52.844Z,7.82
2022-09-12T02:50:20.757Z,7.38
2022-09-12T02:52:48.719Z,8.85
2022-09-12T02:55:17.373Z,7.82
2022-09-12T02:57:47.293Z,6.30
2022-09-12T03:00:15.817Z,10.27
2022-09-12T03:03:08.680Z,11.43
2022-09-12T03:05:42.114Z,9.88
2022-09-12T03:08:39.457Z,6.95
2022-09-12T03:11:28.528Z,9.38
2022-09-12T03:14:07.202Z,7.03
2022-09-12T03:16:42.067Z,9.50
2022-09-12T03:19:19.229Z,6.97
2022-09-12T03:21:59.756Z,7.03
2022-09-12T03:24:34.146Z,8.32
2022-09-12T03:27:09.579Z,9.95
2022-09-12T03:29:39.246Z,11.40
2022-09-12T03:32:07.486Z,10.13
2022-09-12T03:34:35.369Z,9.63
2022-09-12T03:37:04.572Z,8.83
2022-09-12T03:39:32.432Z,7.70
2022-09-12T03:42:00.284Z,8.50
2022-09-12T03:44:30.110Z,7.70
2022-09-12T03:46:57.909Z,7.90
2022-09-12T03:49:25.779Z,8.88
2022-09-12T03:51:53.540Z,8.98
2022-09-12T03:54:23.029Z,8.53
2022-09-12T03:56:50.757Z,9.80
2022-09-12T03:59:18.499Z,9.43
2022-09-12T04:01:46.274Z,8.85
2022-09-12T04:04:16.133Z,9.82
2022-09-12T04:06:44.070Z,10.05
2022-09-12T04:09:11.834Z,6.97
2022-09-12T04:11:40.942Z,7.10
2022-09-12T04:14:08.886Z,6.30
2022-09-12T04:16:36.667Z,6.83
2022-09-12T04:19:04.872Z,7.13
2022-09-12T04:21:32.757Z,5.50
2022-09-12T04:24:00.517Z,8.25
2022-09-12T04:26:29.749Z,8.20
2022-09-12T04:28:59.202Z,7.93
2022-09-12T04:31:27.286Z,6.20
2022-09-12T04:33:55.643Z,6.20
2022-09-12T04:36:24.011Z,6.75
2022-09-12T04:38:52.936Z,7.57
2022-09-12T04:41:22.741Z,8.57
2022-09-12T04:43:54.284Z,9.68
2022-09-12T04:46:23.549Z,9.45
2022-09-12T04:48:56.493Z,8.55
2022-09-12T04:51:27.669Z,6.53
2022-09-12T04:53:58.035Z,7.93
2022-09-12T04:56:27.023Z,7.60
2022-09-12T04:58:54.932Z,7.32
2022-09-12T05:01:24.383Z,7.57
2022-09-12T05:03:52.759Z,5.50
2022-09-12T05:06:22.142Z,6.97
2022-09-12T05:08:53.753Z,6.23
2022-09-12T05:11:26.611Z,5.32
2022-09-12T05:13:58.452Z,6.83
2022-09-12T05:16:28.925Z,8.77
2022-09-12T05:18:58.337Z,6.82
2022-09-12T05:21:30.322Z,6.65
2022-09-12T05:23:59.727Z,6.95
2022-09-12T05:26:28.332Z,7.32
2022-09-12T05:28:56.187Z,6.80
2022-09-12T05:31:26.249Z,6.75
2022-09-12T05:33:56.694Z,8.35
2022-09-12T05:36:42.880Z,8.85
2022-09-12T05:39:10.801Z,11.27
2022-09-12T05:41:39.086Z,13.20
2022-09-12T05:44:14.104Z,12.95
2022-09-12T05:46:44.170Z,13.10
2022-09-12T05:49:14.834Z,8.15
2022-09-12T05:51:44.345Z,8.17
2022-09-12T05:54:17.751Z,10.27
2022-09-12T05:56:46.396Z,9.10
2022-09-12T05:59:16.843Z,8.32
2022-09-12T06:01:47.130Z,10.30
2022-09-12T06:04:17.278Z,9.50
2022-09-12T06:06:48.798Z,10.10
2022-09-12T06:09:17.888Z,11.68
2022-09-12T06:11:46.858Z,11.25
2022-09-12T06:14:16.977Z,10.63
2022-09-12T06:16:44.827Z,9.02
2022-09-12T06:19:17.863Z,8.98
2022-09-12T06:21:47.528Z,8.80
2022-09-12T06:24:15.298Z,10.50
2022-09-12T06:26:43.701Z,10.70
2022-09-12T06:29:14.258Z,10.00
2022-09-12T06:31:44.124Z,9.65
2022-09-12T06:34:15.006Z,9.90
2022-09-12T06:36:45.896Z,10.57
2022-09-12T06:39:18.322Z,11.77
2022-09-12T06:41:47.207Z,9.27
2022-09-12T06:44:17.206Z,8.90
2022-09-12T06:46:45.381Z,7.93
2022-09-12T06:49:14.163Z,10.50
2022-09-12T06:51:43.207Z,9.33
2022-09-12T06:54:14.214Z,10.47
2022-09-12T06:56:42.262Z,11.43
2022-09-12T06:59:10.156Z,10.90
2022-09-12T07:01:38.142Z,12.18
2022-09-12T07:04:06.492Z,12.55
2022-09-12T07:06:38.067Z,12.25
2022-09-12T07:09:07.631Z,9.90
2022-09-12T07:11:39.012Z,11.40
2022-09-12T07:14:10.963Z,10.47
2022-09-12T07:16:39.016Z,11.02
2022-09-12T07:19:08.315Z,11.30
2022-09-12T07:21:40.013Z,11.93
2022-09-12T07:24:10.259Z,10.20
2022-09-12T07:26:42.142Z,11.77
2022-09-12T07:32:02.838Z,10.70
2022-09-12T07:34:30.646Z,9.13
2022-09-12T07:36:58.656Z,11.10
2022-09-12T07:39:26.498Z,9.73
2022-09-12T07:41:56.038Z,9.67
2022-09-12T07:44:23.834Z,10.88
2022-09-12T07:46:52.278Z,10.10
2022-09-12T07:49:20.114Z,9.38
2022-09-12T07:51:47.898Z,10.15
2022-09-12T07:54:15.810Z,9.63
2022-09-12T07:56:43.643Z,9.07
2022-09-12T07:59:13.542Z,9.70
2022-09-12T08:01:41.672Z,9.25
2022-09-12T08:04:09.807Z,8.23
2022-09-12T08:06:37.649Z,8.55
2022-09-12T08:09:07.780Z,8.65
2022-09-12T08:11:35.702Z,8.20
2022-09-12T08:14:05.610Z,7.70
2022-09-12T08:16:35.654Z,7.40
2022-09-12T08:19:04.496Z,7.80
2022-09-12T08:21:33.985Z,8.20
2022-09-12T08:24:03.848Z,7.55
2022-09-12T08:26:32.696Z,7.00
2022-09-12T08:29:00.521Z,7.13
2022-09-12T08:31:29.458Z,7.25
2022-09-12T08:33:59.249Z,7.03
2022-09-12T08:36:29.544Z,7.30
2022-09-12T08:39:00.393Z,6.00
2022-09-12T08:41:34.686Z,5.50
2022-09-12T08:44:27.695Z,4.97
2022-09-12T08:47:18.187Z,4.57
2022-09-12T08:49:54.955Z,4.27
2022-09-12T08:52:28.847Z,3.80
2022-09-12T08:54:57.627Z,3.63
2022-09-12T08:57:25.700Z,3.53
2022-09-12T08:59:54.301Z,3.27
2022-09-12T09:02:42.092Z,3.60
2022-09-12T09:05:22.415Z,3.25
2022-09-12T09:08:16.679Z,3.10
2022-09-12T09:10:50.313Z,3.30
2022-09-12T09:13:50.005Z,2.80
2022-09-12T09:16:26.183Z,2.90
2022-09-12T09:18:57.330Z,2.80
2022-09-12T09:21:31.653Z,2.85
2022-09-12T09:24:05.946Z,2.60
2022-09-12T09:26:44.391Z,2.30
2022-09-12T09:29:17.688Z,2.37
2022-09-12T09:31:49.921Z,2.40
2022-09-12T09:34:21.907Z,2.55
2022-09-12T09:37:04.883Z,2.20
2022-09-12T09:39:44.357Z,2.53
2022-09-12T09:42:27.017Z,2.40
2022-09-12T09:45:01.118Z,2.13
2022-09-12T09:47:29.327Z,2.60
2022-09-12T09:49:57.379Z,2.47
2022-09-12T09:52:30.609Z,2.55
2022-09-12T09:55:00.721Z,2.75
2022-09-12T09:57:44.608Z,3.50
2022-09-12T10:00:30.548Z,3.00
2022-09-12T10:03:11.302Z,2.60
2022-09-12T10:05:48.035Z,2.75
2022-09-12T10:08:24.464Z,2.67
2022-09-12T10:11:01.800Z,2.60
2022-09-12T10:13:36.336Z,2.30
2022-09-12T10:16:08.439Z,2.35
2022-09-12T10:18:40.450Z,2.50
2022-09-12T10:21:31.873Z,2.45
2022-09-12T10:24:06.872Z,2.83
2022-09-12T10:26:38.663Z,3.10
2022-09-12T10:29:16.151Z,2.30
2022-09-12T10:31:48.380Z,2.70
2022-09-12T10:34:30.593Z,2.30
2022-09-12T10:37:04.634Z,2.63
2022-09-12T10:39:38.548Z,2.63
2022-09-12T10:42:07.252Z,2.50
2022-09-12T10:44:36.069Z,2.08
2022-09-12T10:47:22.500Z,2.33
2022-09-12T10:49:50.908Z,1.80
2022-09-12T10:52:23.100Z,2.00
2022-09-12T10:54:52.678Z,1.60
2022-09-12T10:58:09.689Z,1.80
2022-09-12T11:00:50.989Z,1.83
2022-09-12T11:03:25.330Z,1.60
2022-09-12T11:05:56.497Z,1.30
2022-09-12T11:08:41.967Z,2.08
2022-09-12T11:11:23.569Z,1.90
2022-09-12T11:14:07.804Z,1.85
2022-09-12T11:16:44.384Z,2.20
2022-09-12T11:19:27.945Z,1.70
2022-09-12T11:22:19.211Z,1.80
2022-09-12T11:25:15.311Z,1.70
2022-09-12T11:28:00.510Z,1.70
2022-09-12T11:30:38.299Z,1.67
2022-09-12T11:33:25.402Z,1.57
2022-09-12T11:35:57.276Z,1.60
2022-09-12T11:38:40.677Z,1.67
2022-09-12T11:41:10.851Z,1.90
2022-09-12T11:43:47.614Z,1.42
2022-09-12T11:46:23.804Z,1.40
2022-09-12T11:48:58.374Z,1.20
2022-09-12T11:51:29.015Z,1.40
2022-09-12T11:54:06.783Z,1.00
2022-09-12T11:56:39.281Z,1.00
2022-09-12T11:59:16.610Z,1.00
2022-09-12T12:01:56.369Z,1.20
2022-09-12T12:04:30.859Z,0.93
2022-09-12T12:07:04.340Z,0.97
2022-09-12T12:09:32.846Z,1.03
2022-09-12T12:12:05.162Z,0.90
2022-09-12T12:14:39.652Z,1.08
2022-09-12T12:17:16.673Z,0.90
2022-09-12T12:19:44.803Z,1.15
2022-09-12T12:22:22.775Z,1.05
2022-09-12T12:25:04.776Z,0.90
2022-09-12T12:27:53.816Z,1.02
2022-09-12T12:31:02.054Z,1.10
2022-09-12T12:34:16.300Z,0.90
2022-09-12T12:36:46.327Z,1.10
2022-09-12T12:40:01.002Z,0.80
2022-09-12T12:42:59.768Z,0.90
2022-09-12T12:45:50.740Z,0.88
2022-09-12T12:48:20.412Z,0.80
2022-09-12T12:50:48.804Z,0.80
2022-09-12T12:53:23.076Z,0.85
2022-09-12T12:55:53.843Z,1.10
2022-09-12T12:58:32.675Z,1.00
2022-09-12T13:01:13.745Z,1.00
2022-09-12T13:03:44.937Z,0.80
2022-09-12T13:06:33.066Z,1.00
2022-09-12T13:09:05.611Z,1.00
2022-09-12T13:11:36.759Z,0.95
2022-09-12T13:14:07.161Z,0.90
2022-09-12T13:16:37.104Z,1.10
2022-09-12T13:19:09.143Z,0.90
2022-09-12T13:21:37.213Z,0.85
2022-09-12T13:24:15.130Z,0.80
2022-09-12T13:26:46.904Z,0.90
2022-09-12T13:29:17.587Z,0.90
2022-09-12T13:31:47.976Z,1.00
2022-09-12T13:34:21.552Z,0.80
2022-09-12T13:37:06.490Z,0.80
2022-09-12T13:39:47.269Z,0.82
2022-09-12T13:42:33.410Z,1.10
2022-09-12T13:45:05.848Z,0.80
2022-09-12T13:47:36.834Z,0.70
2022-09-12T13:50:07.194Z,0.80
2022-09-12T13:52:37.050Z,0.80
2022-09-12T13:55:15.438Z,0.80
2022-09-12T13:57:43.229Z,0.80
2022-09-12T14:00:19.957Z,1.25
2022-09-12T14:03:11.220Z,0.90
2022-09-12T14:05:40.837Z,0.95
2022-09-12T14:08:10.145Z,0.90
2022-09-12T14:10:44.269Z,0.80
2022-09-12T14:13:14.874Z,0.90
2022-09-12T14:15:46.697Z,0.83
2022-09-12T14:18:24.398Z,0.80
2022-09-12T14:20:56.841Z,0.90
2022-09-12T14:23:30.255Z,1.00
2022-09-12T14:26:02.500Z,1.35
2022-09-12T14:28:31.482Z,1.00
2022-09-12T14:31:01.973Z,0.90
2022-09-12T14:33:34.923Z,0.90
2022-09-12T14:36:13.131Z,0.85
2022-09-12T14:38:44.767Z,0.82
2022-09-12T14:41:22.668Z,0.70
2022-09-12T14:43:55.551Z,0.88
2022-09-12T14:46:28.425Z,1.10
2022-09-12T14:49:01.121Z,1.17
2022-09-12T14:51:33.782Z,0.60
2022-09-12T14:54:02.682Z,1.00
2022-09-12T14:56:43.610Z,0.90
2022-09-12T14:59:32.180Z,0.90
2022-09-12T15:02:33.222Z,0.90
2022-09-12T15:05:17.883Z,0.90
2022-09-12T15:07:53.720Z,0.73
2022-09-12T15:10:25.221Z,0.70
2022-09-12T15:13:14.174Z,0.80
2022-09-12T15:15:43.931Z,0.80
2022-09-12T15:18:13.724Z,0.95
2022-09-12T15:20:43.925Z,0.95
2022-09-12T15:23:18.940Z,0.77
2022-09-12T15:25:47.416Z,0.90
2022-09-12T15:28:22.025Z,0.70
2022-09-12T15:30:54.870Z,0.82
2022-09-12T15:33:25.098Z,1.00
2022-09-12T15:35:53.795Z,0.97
2022-09-12T15:38:25.758Z,0.73
2022-09-12T15:40:54.835Z,0.68
2022-09-12T15:43:26.224Z,0.90
2022-09-12T15:45:54.334Z,1.00
2022-09-12T15:48:22.355Z,0.90
2022-09-12T15:50:50.429Z,0.70
2022-09-12T15:53:18.388Z,0.70
2022-09-12T15:55:46.314Z,0.90
2022-09-12T15:58:14.560Z,0.80
2022-09-12T16:00:43.953Z,0.90
2022-09-12T16:03:22.431Z,1.10
2022-09-12T16:05:50.829Z,0.90
2022-09-12T16:08:20.876Z,0.90
2022-09-12T16:10:53.984Z,0.80
2022-09-12T16:13:21.865Z,1.05
2022-09-12T16:15:53.726Z,0.60
2022-09-12T16:18:21.519Z,0.90
2022-09-12T16:20:53.345Z,2.63
2022-09-12T16:23:21.539Z,1.20
2022-09-12T16:25:57.789Z,1.10
2022-09-12T16:28:25.839Z,1.00
2022-09-12T16:30:59.017Z,1.20
2022-09-12T16:33:27.569Z,1.10
2022-09-12T16:36:03.282Z,0.90
2022-09-12T16:38:31.193Z,0.90
2022-09-12T16:41:02.422Z,1.10
2022-09-12T16:43:30.745Z,0.80
2022-09-12T16:46:03.790Z,0.95
2022-09-12T16:48:32.362Z,1.20
2022-09-12T16:51:01.889Z,1.13
2022-09-12T16:53:31.589Z,1.00
2022-09-12T16:55:59.559Z,1.20
2022-09-12T16:58:27.685Z,1.10
2022-09-12T17:01:01.446Z,1.45
2022-09-12T17:03:31.019Z,1.27
2022-09-12T17:06:00.833Z,1.30
2022-09-12T17:08:28.698Z,1.15
2022-09-12T17:11:01.141Z,1.30
2022-09-12T17:13:41.328Z,1.70
2022-09-12T17:16:17.608Z,2.43
2022-09-12T17:18:46.805Z,1.80
2022-09-12T17:21:15.048Z,1.60
2022-09-12T17:23:43.354Z,1.80
2022-09-12T17:26:11.825Z,1.40
2022-09-12T17:28:40.582Z,1.35
2022-09-12T17:31:10.354Z,1.50
2022-09-12T17:33:39.115Z,11.13
2022-09-12T17:36:11.119Z,1.77
2022-09-12T17:38:40.625Z,2.20
2022-09-12T17:41:15.011Z,1.70
2022-09-12T17:43:43.581Z,1.65
2022-09-12T17:46:11.687Z,2.05
2022-09-12T17:48:39.597Z,3.17
2022-09-12T17:51:10.088Z,2.30
2022-09-12T17:53:37.979Z,2.20
2022-09-12T17:56:07.155Z,1.88
2022-09-12T17:58:35.542Z,2.10
2022-09-12T18:01:22.328Z,2.05
2022-09-12T18:03:50.681Z,2.17
2022-09-12T18:06:19.837Z,2.50
2022-09-12T18:08:47.617Z,2.28
2022-09-12T18:11:15.664Z,1.70
2022-09-12T18:13:43.570Z,1.80
2022-09-12T18:16:13.109Z,2.40
2022-09-12T18:18:41.527Z,2.25
2022-09-12T18:21:12.284Z,2.70
2022-09-12T18:23:41.460Z,2.43
2022-09-12T18:26:13.091Z,2.70
2022-09-12T18:28:42.463Z,2.50
2022-09-12T18:31:13.286Z,2.05
2022-09-12T18:33:41.630Z,1.70
2022-09-12T18:36:13.623Z,1.73
2022-09-12T18:38:43.513Z,2.17
2022-09-12T18:41:13.226Z,2.53
2022-09-12T18:43:40.988Z,2.03
2022-09-12T18:46:11.140Z,2.37
2022-09-12T18:48:39.427Z,2.35
2022-09-12T18:51:12.430Z,1.70
2022-09-12T18:53:40.566Z,1.45
2022-09-12T18:56:12.102Z,1.63
2022-09-12T18:58:42.575Z,2.00
2022-09-12T19:01:12.096Z,1.58
2022-09-12T19:03:40.173Z,1.50
2022-09-12T19:06:11.748Z,1.50
2022-09-12T19:08:40.118Z,1.40
2022-09-12T19:11:09.977Z,2.00
2022-09-12T19:13:40.055Z,1.80
2022-09-12T19:16:10.502Z,2.30
2022-09-12T19:18:39.566Z,2.38
2022-09-12T19:21:08.930Z,2.80
2022-09-12T19:23:38.900Z,4.05
2022-09-12T19:26:10.789Z,3.97
2022-09-12T19:28:38.890Z,2.27
2022-09-12T19:31:07.465Z,2.97
2022-09-12T19:33:35.654Z,3.92
2022-09-12T19:36:04.339Z,4.40
2022-09-12T19:38:32.143Z,4.00
2022-09-12T19:41:01.034Z,4.27
2022-09-12T19:43:31.613Z,3.85
2022-09-12T19:46:00.047Z,3.63
2022-09-12T19:48:28.300Z,3.20
2022-09-12T19:50:59.889Z,2.72
2022-09-12T19:53:28.227Z,3.83
2022-09-12T19:56:00.310Z,4.32
2022-09-12T19:58:28.529Z,5.55
2022-09-12T20:00:58.551Z,3.33
2022-09-12T20:03:26.346Z,3.00
2022-09-12T20:05:54.109Z,4.10
2022-09-12T20:08:21.956Z,4.85
2022-09-12T20:10:52.784Z,4.70
2022-09-12T20:13:22.914Z,5.00
2022-09-12T20:15:50.677Z,3.03
2022-09-12T20:18:19.891Z,2.80
2022-09-12T20:20:47.642Z,2.27
2022-09-12T20:23:15.360Z,3.03
2022-09-12T20:25:43.166Z,2.90
2022-09-12T20:28:10.932Z,2.70
2022-09-12T20:30:38.673Z,3.13
2022-09-12T20:33:08.935Z,3.40
2022-09-12T20:35:38.123Z,2.70
2022-09-12T20:38:05.867Z,2.35
2022-09-12T20:40:33.571Z,12.82
2022-09-12T20:43:01.379Z,7.82
2022-09-12T20:45:29.147Z,6.63
2022-09-12T20:47:56.912Z,4.20
2022-09-12T20:50:24.670Z,4.47
2022-09-12T20:52:53.772Z,4.20
2022-09-12T20:55:21.491Z,3.70
2022-09-12T20:57:50.556Z,3.65
2022-09-12T21:00:18.853Z,3.97
2022-09-12T21:02:46.659Z,3.08
2022-09-12T21:05:14.473Z,3.45
2022-09-12T21:07:42.226Z,3.38
2022-09-12T21:10:11.726Z,3.10
2022-09-12T21:12:39.543Z,3.50
2022-09-12T21:15:08.292Z,3.42
2022-09-12T21:17:36.056Z,3.30
2022-09-12T21:20:06.921Z,3.47
2022-09-12T21:22:37.216Z,3.67
2022-09-12T21:25:05.630Z,2.83
2022-09-12T21:27:34.789Z,2.40
2022-09-12T21:30:03.658Z,3.00
2022-09-12T21:32:34.729Z,3.00
2022-09-12T21:35:03.004Z,3.73
2022-09-12T21:37:32.942Z,3.20
2022-09-12T21:40:00.737Z,3.38
2022-09-12T21:42:28.501Z,3.05
2022-09-12T21:44:57.610Z,3.23
2022-09-12T21:47:27.447Z,3.40
2022-09-12T21:49:55.654Z,3.60
2022-09-12T21:52:23.350Z,3.83
2022-09-12T21:54:51.089Z,3.70
2022-09-12T21:57:18.814Z,3.15
2022-09-12T21:59:46.587Z,3.15
2022-09-12T22:02:15.907Z,3.53
2022-09-12T22:04:44.027Z,3.17
2022-09-12T22:07:11.862Z,2.92
2022-09-12T22:09:39.594Z,3.30
2022-09-12T22:12:07.621Z,3.50
2022-09-12T22:14:35.860Z,2.93
2022-09-12T22:17:03.848Z,3.50
2022-09-12T22:19:35.076Z,3.97
2022-09-12T22:22:20.106Z,3.90
2022-09-12T22:24:47.883Z,3.10
2022-09-12T22:27:15.715Z,2.97
2022-09-12T22:29:46.090Z,2.50
2022-09-12T22:32:14.627Z,3.30
2022-09-12T22:34:43.955Z,3.30
2022-09-12T22:37:12.380Z,2.58
2022-09-12T22:39:40.564Z,2.47
2022-09-12T22:42:09.616Z,3.50
2022-09-12T22:44:37.389Z,2.42
2022-09-12T22:47:07.529Z,2.50
2022-09-12T22:49:35.316Z,2.70
2022-09-12T22:52:04.685Z,3.33
2022-09-12T22:54:34.984Z,3.10
2022-09-12T22:57:02.701Z,2.47
2022-09-12T22:59:30.471Z,2.35
2022-09-12T23:01:58.237Z,2.13
2022-09-12T23:04:26.029Z,2.10
2022-09-12T23:06:54.019Z,2.38
2022-09-12T23:09:23.541Z,2.70
2022-09-12T23:11:53.720Z,2.05
2022-09-12T23:14:21.550Z,2.10
2022-09-12T23:16:49.399Z,2.83
2022-09-12T23:19:17.184Z,2.13
2022-09-12T23:21:45.718Z,2.38
2022-09-12T23:24:13.540Z,2.33
2022-09-12T23:26:42.841Z,2.30
2022-09-12T23:29:11.385Z,3.10
2022-09-12T23:31:39.548Z,2.83
2022-09-12T23:34:07.361Z,2.30
2022-09-12T23:36:35.453Z,2.37
2022-09-12T23:39:03.296Z,2.30
2022-09-12T23:41:31.181Z,2.40
2022-09-12T23:44:00.645Z,2.90
2022-09-12T23:46:28.548Z,3.33
2022-09-12T23:48:56.299Z,3.75
2022-09-12T23:51:24.100Z,3.80
2022-09-12T23:53:51.988Z,3.08
2022-09-12T23:56:19.744Z,2.78
2022-09-12T23:58:47.565Z,2.70
